Time;durP1;ratioP1;P1;durP2;ratioP2;P2;SDS_P1;SDS_P2;PMS_P1;PMS_P2;Temp;Humidity;BMP_temperature;BMP_pressure;BME280_temperature;BME280_humidity;BME280_pressure;Samples;Min_cycle;Max_cycle;Signal;HPM_P1;HPM_P2
2023/12/09 10:52:15;;;;;;;15.27;9.40;;;;;;;10.07;100.00;98434.66;5109502;28;20547;-89
2023/12/09 10:55:05;;;;;;;21.60;12.33;;;;;;;10.68;100.00;98415.44;5092210;28;40816;-89
2023/12/09 10:57:34;;;;;;;14.90;9.27;;;;;;;11.34;100.00;98431.97;5091719;28;43319;-88
2023/12/09 11:00:38;;;;;;;10.37;7.43;;;;;;;11.60;100.00;98392.94;5132373;27;42047;-89
2023/12/09 11:03:10;;;;;;;8.47;6.13;;;;;;;12.00;100.00;98378.41;5112315;27;42521;-89
2023/12/09 11:06:18;;;;;;;10.73;6.47;;;;;;;12.49;100.00;98410.00;5112366;27;39184;-89
2023/12/09 11:17:59;;;;;;;9.43;5.43;;;;;;;12.04;100.00;98371.06;5110841;27;38841;-88
2023/12/09 12:10:03;;;;;;;6.60;4.40;;;;;;;14.94;85.32;98236.88;5145808;27;41135;-90
2023/12/09 12:12:36;;;;;;;10.23;4.13;;;;;;;16.68;78.91;98262.34;5134759;27;41077;-92
2023/12/09 12:15:10;;;;;;;6.00;3.83;;;;;;;17.68;69.11;98253.34;5100704;27;42743;-92
2023/12/09 12:18:01;;;;;;;4.17;2.93;;;;;;;17.06;67.96;98226.47;5098888;27;42835;-90
2023/12/09 12:46:39;;;;;;;12.90;7.20;;;;;;;14.57;74.07;98192.22;5154571;27;44054;-92
2023/12/09 12:49:10;;;;;;;12.27;8.47;;;;;;;14.37;72.53;98153.13;5120490;27;41264;-91
2023/12/09 13:12:48;;;;;;;5.50;2.87;;;;;;;13.01;75.93;98110.88;5151108;27;43106;-90
2023/12/09 13:15:16;;;;;;;4.57;2.97;;;;;;;12.89;76.27;98133.16;5119653;27;42933;-90
2023/12/09 13:20:49;;;;;;;4.67;3.27;;;;;;;12.41;78.28;98082.28;5121400;27;38725;-90
2023/12/09 13:23:18;;;;;;;5.87;2.90;;;;;;;12.52;79.04;98109.66;5119734;27;42179;-91
2023/12/09 13:26:14;;;;;;;4.90;2.80;;;;;;;12.34;79.26;98076.66;5102186;27;43486;-91
2023/12/09 13:36:57;;;;;;;48.03;18.10;;;;;;;12.15;79.31;98082.59;5155100;27;43156;-89
2023/12/09 13:39:26;;;;;;;17.13;8.47;;;;;;;11.60;79.51;97990.69;5117534;27;41764;-91
2023/12/09 13:41:54;;;;;;;5.80;3.90;;;;;;;11.79;80.16;98017.44;5119304;27;41081;-91
2023/12/09 13:44:26;;;;;;;4.67;3.40;;;;;;;11.96;80.27;98052.38;5154350;27;38620;-91
2023/12/09 13:47:16;;;;;;;5.63;3.17;;;;;;;11.79;79.78;98021.91;5102541;27;41735;-90
2023/12/09 13:49:44;;;;;;;4.63;3.10;;;;;;;11.56;79.63;97994.56;5103045;27;43082;-90
2023/12/09 13:52:48;;;;;;;4.83;3.70;;;;;;;11.60;79.70;98022.53;5116349;27;42087;-90
2023/12/09 13:55:20;;;;;;;6.73;3.27;;;;;;;11.29;80.29;97981.69;5119624;27;40053;-91
2023/12/09 13:57:48;;;;;;;4.40;3.20;;;;;;;11.27;80.72;97983.59;5119672;27;42740;-90
2023/12/09 14:00:20;;;;;;;5.77;3.80;;;;;;;11.21;81.08;97988.56;5119013;27;43693;-90
2023/12/09 14:02:50;;;;;;;4.50;3.40;;;;;;;10.94;80.88;97963.28;5119629;27;43624;-90
2023/12/09 14:05:21;;;;;;;5.40;3.30;;;;;;;11.00;80.76;98002.50;5119318;27;41091;-89
2023/12/09 14:07:55;;;;;;;6.03;3.70;;;;;;;10.62;81.58;97949.03;5119415;27;40693;-91
2023/12/09 14:10:24;;;;;;;5.20;4.20;;;;;;;10.76;81.83;97994.66;5118808;27;43070;-91
2023/12/09 14:12:52;;;;;;;7.17;4.17;;;;;;;10.67;82.33;97995.38;5119839;27;41047;-91
2023/12/09 14:15:23;;;;;;;7.00;4.50;;;;;;;10.14;82.21;97898.84;5118805;27;38795;-92
2023/12/09 14:17:55;;;;;;;6.37;4.03;;;;;;;10.50;82.68;97960.56;5102465;27;43083;-92
2023/12/09 14:20:26;;;;;;;7.60;4.27;;;;;;;10.29;83.17;97929.47;5119001;27;42003;-91
2023/12/09 14:22:53;;;;;;;5.83;4.67;;;;;;;10.35;83.40;97942.25;5153795;27;41286;-91
2023/12/09 14:25:27;;;;;;;7.60;5.27;;;;;;;10.01;83.43;97885.72;5118693;27;39283;-91
2023/12/09 14:28:02;;;;;;;6.73;4.10;;;;;;;10.18;83.37;97908.28;5118963;27;40758;-91
2023/12/09 14:30:32;;;;;;;6.63;5.10;;;;;;;9.62;83.09;97839.34;5136292;27;43377;-91
2023/12/09 14:33:00;;;;;;;7.43;4.93;;;;;;;9.89;82.75;97910.44;5118950;27;41300;-88
2023/12/09 14:38:09;;;;;;;5.83;4.97;;;;;;;9.51;83.42;97897.44;5118799;27;41809;-91
2023/12/09 14:41:24;;;;;;;6.33;5.00;;;;;;;9.59;84.23;97921.50;5118182;27;41725;-91
2023/12/09 14:46:53;;;;;;;5.23;4.50;;;;;;;9.43;84.41;97897.13;5118169;27;39850;-90
2023/12/09 14:49:28;;;;;;;8.90;5.20;;;;;;;9.18;84.68;97847.03;5118928;27;40608;-91
2023/12/09 14:52:16;;;;;;;7.33;5.50;;;;;;;9.27;84.71;97856.97;5118975;27;44502;-91
2023/12/09 14:54:52;;;;;;;7.83;5.27;;;;;;;9.05;84.89;97830.41;5126711;27;41008;-90
2023/12/09 14:57:27;;;;;;;8.07;4.37;;;;;;;9.13;85.26;97836.00;5141529;27;40083;-91
2023/12/09 14:59:56;;;;;;;6.00;5.03;;;;;;;9.12;85.32;97852.78;5142517;27;40760;-90
2023/12/09 15:02:45;;;;;;;6.93;5.33;;;;;;;8.85;85.92;97818.66;5140523;27;42843;-90
2023/12/09 15:05:14;;;;;;;6.53;5.20;;;;;;;8.90;85.97;97843.75;5142076;27;42339;-89
2023/12/09 15:07:47;;;;;;;10.40;5.10;;;;;;;8.91;86.36;97869.19;5125728;27;38892;-90
2023/12/09 15:10:38;;;;;;;7.20;5.03;;;;;;;8.48;85.99;97783.50;5123856;27;41941;-90
2023/12/09 15:13:16;;;;;;;5.77;4.63;;;;;;;8.67;86.11;97826.06;5118271;27;43450;-91
2023/12/09 15:15:47;;;;;;;6.93;4.67;;;;;;;8.56;86.52;97818.09;5118362;27;41730;-91
2023/12/09 15:18:44;;;;;;;6.73;4.53;;;;;;;8.47;87.05;97819.59;5115382;27;38948;-91
2023/12/09 15:21:15;;;;;;;6.17;4.60;;;;;;;8.51;87.44;97826.34;5118228;27;41003;-91
2023/12/09 15:23:52;;;;;;;5.93;4.40;;;;;;;8.05;87.36;97749.56;5117528;27;42278;-90
2023/12/09 15:26:27;;;;;;;7.07;5.00;;;;;;;7.96;88.09;97744.94;5119654;27;41396;-91
